sensor_id;sensor_type;location;lat;lon;timestamp;P1;durP1;ratioP1;P2;durP2;ratioP2
7215;SDS011;3649;48.798;9.798;2023-01-16T00:01:41;2.80;;;1.60;;
7215;SDS011;3649;48.798;9.798;2023-01-16T00:04:08;2.10;;;1.33;;
7215;SDS011;3649;48.798;9.798;2023-01-16T00:06:35;2.27;;;1.60;;
7215;SDS011;3649;48.798;9.798;2023-01-16T00:09:03;1.63;;;1.53;;
7215;SDS011;3649;48.798;9.798;2023-01-16T00:11:30;2.20;;;1.50;;
7215;SDS011;3649;48.798;9.798;2023-01-16T00:13:57;1.80;;;1.37;;
7215;SDS011;3649;48.798;9.798;2023-01-16T00:16:25;4.87;;;1.63;;
7215;SDS011;3649;48.798;9.798;2023-01-16T00:18:53;2.93;;;2.10;;
7215;SDS011;3649;48.798;9.798;2023-01-16T00:21:21;1.53;;;1.40;;
7215;SDS011;3649;48.798;9.798;2023-01-16T00:23:55;1.87;;;1.73;;
7215;SDS011;3649;48.798;9.798;2023-01-16T00:26:25;1.53;;;1.40;;
7215;SDS011;3649;48.798;9.798;2023-01-16T00:28:53;1.77;;;1.63;;
7215;SDS011;3649;48.798;9.798;2023-01-16T00:31:20;1.57;;;1.47;;
7215;SDS011;3649;48.798;9.798;2023-01-16T00:33:49;1.57;;;1.47;;
7215;SDS011;3649;48.798;9.798;2023-01-16T00:36:16;3.17;;;1.40;;
7215;SDS011;3649;48.798;9.798;2023-01-16T00:38:43;3.13;;;1.57;;
7215;SDS011;3649;48.798;9.798;2023-01-16T00:41:10;1.53;;;1.37;;
7215;SDS011;3649;48.798;9.798;2023-01-16T00:43:37;1.70;;;1.60;;
7215;SDS011;3649;48.798;9.798;2023-01-16T00:46:04;1.20;;;1.20;;
7215;SDS011;3649;48.798;9.798;2023-01-16T00:48:30;1.80;;;1.43;;
7215;SDS011;3649;48.798;9.798;2023-01-16T00:50:57;2.60;;;1.40;;
7215;SDS011;3649;48.798;9.798;2023-01-16T00:53:24;1.50;;;1.40;;
7215;SDS011;3649;48.798;9.798;2023-01-16T00:55:51;1.50;;;1.40;;
7215;SDS011;3649;48.798;9.798;2023-01-16T00:58:18;2.67;;;1.20;;
7215;SDS011;3649;48.798;9.798;2023-01-16T01:00:45;2.33;;;1.87;;
7215;SDS011;3649;48.798;9.798;2023-01-16T01:03:12;4.03;;;1.30;;
7215;SDS011;3649;48.798;9.798;2023-01-16T01:05:39;2.80;;;1.60;;
7215;SDS011;3649;48.798;9.798;2023-01-16T01:08:06;1.57;;;1.47;;
7215;SDS011;3649;48.798;9.798;2023-01-16T01:10:35;3.93;;;1.47;;
7215;SDS011;3649;48.798;9.798;2023-01-16T01:13:03;2.47;;;1.30;;
7215;SDS011;3649;48.798;9.798;2023-01-16T01:15:29;1.37;;;1.27;;
7215;SDS011;3649;48.798;9.798;2023-01-16T01:17:56;2.60;;;1.37;;
7215;SDS011;3649;48.798;9.798;2023-01-16T01:20:24;1.73;;;1.50;;
7215;SDS011;3649;48.798;9.798;2023-01-16T01:22:50;3.57;;;1.83;;
7215;SDS011;3649;48.798;9.798;2023-01-16T01:25:17;3.23;;;1.50;;
7215;SDS011;3649;48.798;9.798;2023-01-16T01:27:44;1.63;;;1.60;;
7215;SDS011;3649;48.798;9.798;2023-01-16T01:30:10;1.50;;;1.40;;
7215;SDS011;3649;48.798;9.798;2023-01-16T01:32:37;5.47;;;1.63;;
7215;SDS011;3649;48.798;9.798;2023-01-16T01:35:07;1.27;;;1.27;;
7215;SDS011;3649;48.798;9.798;2023-01-16T01:37:34;3.80;;;1.50;;
7215;SDS011;3649;48.798;9.798;2023-01-16T01:40:02;3.30;;;1.60;;
7215;SDS011;3649;48.798;9.798;2023-01-16T01:42:35;1.67;;;1.40;;
7215;SDS011;3649;48.798;9.798;2023-01-16T01:45:23;6.10;;;1.40;;
7215;SDS011;3649;48.798;9.798;2023-01-16T01:48:11;6.47;;;1.70;;
7215;SDS011;3649;48.798;9.798;2023-01-16T01:53:29;4.03;;;1.70;;
7215;SDS011;3649;48.798;9.798;2023-01-16T01:56:01;2.73;;;1.70;;
7215;SDS011;3649;48.798;9.798;2023-01-16T01:58:36;2.47;;;1.53;;
7215;SDS011;3649;48.798;9.798;2023-01-16T02:01:04;1.20;;;1.10;;
7215;SDS011;3649;48.798;9.798;2023-01-16T02:03:36;2.40;;;1.50;;
7215;SDS011;3649;48.798;9.798;2023-01-16T02:08:59;2.07;;;1.90;;
7215;SDS011;3649;48.798;9.798;2023-01-16T02:11:29;1.73;;;1.50;;
7215;SDS011;3649;48.798;9.798;2023-01-16T02:14:04;3.00;;;1.70;;
7215;SDS011;3649;48.798;9.798;2023-01-16T02:16:35;3.60;;;1.67;;
7215;SDS011;3649;48.798;9.798;2023-01-16T02:19:26;2.63;;;2.00;;
7215;SDS011;3649;48.798;9.798;2023-01-16T02:33:03;6.87;;;1.57;;
7215;SDS011;3649;48.798;9.798;2023-01-16T02:35:46;1.70;;;1.60;;
7215;SDS011;3649;48.798;9.798;2023-01-16T02:38:20;4.37;;;1.63;;
7215;SDS011;3649;48.798;9.798;2023-01-16T02:41:21;1.83;;;1.63;;
7215;SDS011;3649;48.798;9.798;2023-01-16T02:44:22;2.50;;;1.30;;
7215;SDS011;3649;48.798;9.798;2023-01-16T02:47:17;2.07;;;1.53;;
7215;SDS011;3649;48.798;9.798;2023-01-16T02:49:49;1.80;;;1.60;;
7215;SDS011;3649;48.798;9.798;2023-01-16T02:55:03;3.20;;;1.67;;
7215;SDS011;3649;48.798;9.798;2023-01-16T02:57:37;1.70;;;1.40;;
7215;SDS011;3649;48.798;9.798;2023-01-16T03:00:08;4.20;;;1.73;;
7215;SDS011;3649;48.798;9.798;2023-01-16T03:02:36;1.73;;;1.63;;
7215;SDS011;3649;48.798;9.798;2023-01-16T03:05:02;3.67;;;2.40;;
7215;SDS011;3649;48.798;9.798;2023-01-16T03:07:51;2.37;;;2.00;;
7215;SDS011;3649;48.798;9.798;2023-01-16T03:22:24;4.53;;;2.20;;
7215;SDS011;3649;48.798;9.798;2023-01-16T03:25:09;3.90;;;1.83;;
7215;SDS011;3649;48.798;9.798;2023-01-16T03:28:04;2.23;;;1.67;;
7215;SDS011;3649;48.798;9.798;2023-01-16T03:35:55;1.87;;;1.77;;
7215;SDS011;3649;48.798;9.798;2023-01-16T03:38:25;3.33;;;2.10;;
7215;SDS011;3649;48.798;9.798;2023-01-16T03:40:53;4.07;;;1.60;;
7215;SDS011;3649;48.798;9.798;2023-01-16T03:43:26;2.93;;;1.80;;
7215;SDS011;3649;48.798;9.798;2023-01-16T03:46:01;2.63;;;2.00;;
7215;SDS011;3649;48.798;9.798;2023-01-16T03:48:47;2.83;;;1.97;;
7215;SDS011;3649;48.798;9.798;2023-01-16T03:51:20;2.83;;;1.90;;
7215;SDS011;3649;48.798;9.798;2023-01-16T03:56:36;4.47;;;1.80;;
7215;SDS011;3649;48.798;9.798;2023-01-16T03:59:08;2.17;;;1.63;;
7215;SDS011;3649;48.798;9.798;2023-01-16T04:01:55;2.00;;;1.90;;
7215;SDS011;3649;48.798;9.798;2023-01-16T04:04:59;2.80;;;1.90;;
7215;SDS011;3649;48.798;9.798;2023-01-16T04:07:47;8.47;;;2.00;;
7215;SDS011;3649;48.798;9.798;2023-01-16T04:10:24;2.63;;;1.63;;
7215;SDS011;3649;48.798;9.798;2023-01-16T04:12:54;2.17;;;1.60;;
7215;SDS011;3649;48.798;9.798;2023-01-16T04:15:25;2.00;;;1.67;;
7215;SDS011;3649;48.798;9.798;2023-01-16T04:17:56;4.13;;;1.70;;
7215;SDS011;3649;48.798;9.798;2023-01-16T04:20:23;2.43;;;1.80;;
7215;SDS011;3649;48.798;9.798;2023-01-16T04:22:51;4.40;;;1.90;;
7215;SDS011;3649;48.798;9.798;2023-01-16T04:25:19;5.30;;;1.90;;
7215;SDS011;3649;48.798;9.798;2023-01-16T04:27:46;3.40;;;2.23;;
7215;SDS011;3649;48.798;9.798;2023-01-16T04:30:13;3.47;;;1.77;;
7215;SDS011;3649;48.798;9.798;2023-01-16T04:32:41;4.57;;;1.70;;
7215;SDS011;3649;48.798;9.798;2023-01-16T04:35:09;3.13;;;2.10;;
7215;SDS011;3649;48.798;9.798;2023-01-16T04:37:36;4.77;;;2.03;;
7215;SDS011;3649;48.798;9.798;2023-01-16T04:40:03;4.33;;;2.00;;
7215;SDS011;3649;48.798;9.798;2023-01-16T04:42:31;1.80;;;1.70;;
7215;SDS011;3649;48.798;9.798;2023-01-16T04:44:57;5.17;;;2.30;;
7215;SDS011;3649;48.798;9.798;2023-01-16T04:47:24;3.20;;;1.93;;
7215;SDS011;3649;48.798;9.798;2023-01-16T04:49:51;4.10;;;1.60;;
7215;SDS011;3649;48.798;9.798;2023-01-16T04:52:17;1.60;;;1.50;;
7215;SDS011;3649;48.798;9.798;2023-01-16T04:54:44;2.83;;;1.63;;
7215;SDS011;3649;48.798;9.798;2023-01-16T04:57:11;2.80;;;2.17;;
7215;SDS011;3649;48.798;9.798;2023-01-16T04:59:38;2.00;;;1.90;;
7215;SDS011;3649;48.798;9.798;2023-01-16T05:02:07;2.33;;;1.90;;
7215;SDS011;3649;48.798;9.798;2023-01-16T05:04:38;3.73;;;1.80;;
7215;SDS011;3649;48.798;9.798;2023-01-16T05:07:05;3.93;;;2.40;;
7215;SDS011;3649;48.798;9.798;2023-01-16T05:09:32;6.73;;;1.90;;
7215;SDS011;3649;48.798;9.798;2023-01-16T05:11:59;2.50;;;2.30;;
7215;SDS011;3649;48.798;9.798;2023-01-16T05:14:25;3.03;;;1.87;;
7215;SDS011;3649;48.798;9.798;2023-01-16T05:16:52;2.63;;;2.43;;
7215;SDS011;3649;48.798;9.798;2023-01-16T05:19:19;4.03;;;2.30;;
7215;SDS011;3649;48.798;9.798;2023-01-16T05:21:46;2.47;;;2.00;;
7215;SDS011;3649;48.798;9.798;2023-01-16T05:24:13;3.50;;;2.73;;
7215;SDS011;3649;48.798;9.798;2023-01-16T05:26:40;7.77;;;2.50;;
7215;SDS011;3649;48.798;9.798;2023-01-16T05:29:07;4.27;;;2.17;;
7215;SDS011;3649;48.798;9.798;2023-01-16T05:31:35;3.57;;;2.20;;
7215;SDS011;3649;48.798;9.798;2023-01-16T05:34:03;4.20;;;3.10;;
7215;SDS011;3649;48.798;9.798;2023-01-16T05:36:30;3.73;;;2.40;;
7215;SDS011;3649;48.798;9.798;2023-01-16T05:38:56;2.77;;;2.57;;
7215;SDS011;3649;48.798;9.798;2023-01-16T05:41:23;4.60;;;2.73;;
7215;SDS011;3649;48.798;9.798;2023-01-16T05:43:50;4.57;;;2.60;;
7215;SDS011;3649;48.798;9.798;2023-01-16T05:46:17;6.20;;;3.30;;
7215;SDS011;3649;48.798;9.798;2023-01-16T05:48:43;5.23;;;2.73;;
7215;SDS011;3649;48.798;9.798;2023-01-16T05:51:10;5.23;;;2.90;;
7215;SDS011;3649;48.798;9.798;2023-01-16T05:53:41;6.47;;;3.20;;
7215;SDS011;3649;48.798;9.798;2023-01-16T05:56:08;5.77;;;3.33;;
7215;SDS011;3649;48.798;9.798;2023-01-16T05:58:36;4.50;;;3.13;;
7215;SDS011;3649;48.798;9.798;2023-01-16T06:01:03;5.00;;;2.80;;
7215;SDS011;3649;48.798;9.798;2023-01-16T06:03:30;2.50;;;2.23;;
7215;SDS011;3649;48.798;9.798;2023-01-16T06:05:57;2.50;;;2.30;;
7215;SDS011;3649;48.798;9.798;2023-01-16T06:08:25;4.77;;;2.40;;
7215;SDS011;3649;48.798;9.798;2023-01-16T06:10:52;3.10;;;2.40;;
7215;SDS011;3649;48.798;9.798;2023-01-16T06:13:19;3.37;;;3.07;;
7215;SDS011;3649;48.798;9.798;2023-01-16T06:15:45;3.57;;;2.43;;
7215;SDS011;3649;48.798;9.798;2023-01-16T06:18:12;4.00;;;2.73;;
7215;SDS011;3649;48.798;9.798;2023-01-16T06:20:41;2.33;;;2.13;;
7215;SDS011;3649;48.798;9.798;2023-01-16T06:23:08;8.20;;;2.97;;
7215;SDS011;3649;48.798;9.798;2023-01-16T06:25:35;4.63;;;2.50;;
7215;SDS011;3649;48.798;9.798;2023-01-16T06:28:02;2.57;;;2.30;;
7215;SDS011;3649;48.798;9.798;2023-01-16T06:30:29;7.07;;;3.20;;
7215;SDS011;3649;48.798;9.798;2023-01-16T06:32:55;4.90;;;3.00;;
7215;SDS011;3649;48.798;9.798;2023-01-16T06:35:22;3.20;;;2.90;;
7215;SDS011;3649;48.798;9.798;2023-01-16T06:37:49;4.03;;;3.20;;
7215;SDS011;3649;48.798;9.798;2023-01-16T06:40:15;3.67;;;2.83;;
7215;SDS011;3649;48.798;9.798;2023-01-16T06:42:44;3.80;;;2.60;;
7215;SDS011;3649;48.798;9.798;2023-01-16T06:45:11;6.27;;;3.07;;
7215;SDS011;3649;48.798;9.798;2023-01-16T06:47:38;4.37;;;3.97;;
7215;SDS011;3649;48.798;9.798;2023-01-16T06:50:05;5.47;;;3.00;;
7215;SDS011;3649;48.798;9.798;2023-01-16T06:52:32;2.60;;;2.40;;
7215;SDS011;3649;48.798;9.798;2023-01-16T06:55:01;2.60;;;2.40;;
7215;SDS011;3649;48.798;9.798;2023-01-16T06:57:28;4.13;;;2.40;;
7215;SDS011;3649;48.798;9.798;2023-01-16T06:59:55;4.40;;;2.33;;
7215;SDS011;3649;48.798;9.798;2023-01-16T07:02:21;5.37;;;2.70;;
7215;SDS011;3649;48.798;9.798;2023-01-16T07:04:48;5.20;;;2.27;;
7215;SDS011;3649;48.798;9.798;2023-01-16T07:07:15;7.23;;;2.80;;
7215;SDS011;3649;48.798;9.798;2023-01-16T07:09:42;6.13;;;3.00;;
7215;SDS011;3649;48.798;9.798;2023-01-16T07:12:09;2.67;;;2.43;;
7215;SDS011;3649;48.798;9.798;2023-01-16T07:14:35;2.10;;;1.90;;
7215;SDS011;3649;48.798;9.798;2023-01-16T07:17:21;3.57;;;2.10;;
7215;SDS011;3649;48.798;9.798;2023-01-16T07:20:08;2.47;;;2.27;;
7215;SDS011;3649;48.798;9.798;2023-01-16T07:22:54;3.53;;;2.80;;
7215;SDS011;3649;48.798;9.798;2023-01-16T07:25:23;3.13;;;2.07;;
7215;SDS011;3649;48.798;9.798;2023-01-16T07:27:57;2.70;;;2.50;;
7215;SDS011;3649;48.798;9.798;2023-01-16T07:30:24;12.63;;;7.03;;
7215;SDS011;3649;48.798;9.798;2023-01-16T07:32:51;54.93;;;21.77;;
7215;SDS011;3649;48.798;9.798;2023-01-16T07:35:18;20.63;;;9.57;;
7215;SDS011;3649;48.798;9.798;2023-01-16T07:37:44;39.10;;;16.00;;
7215;SDS011;3649;48.798;9.798;2023-01-16T07:40:12;25.90;;;10.63;;
7215;SDS011;3649;48.798;9.798;2023-01-16T07:42:39;15.07;;;6.20;;
7215;SDS011;3649;48.798;9.798;2023-01-16T07:45:06;5.63;;;4.53;;
7215;SDS011;3649;48.798;9.798;2023-01-16T07:47:33;8.67;;;3.90;;
7215;SDS011;3649;48.798;9.798;2023-01-16T07:50:00;4.20;;;2.13;;
7215;SDS011;3649;48.798;9.798;2023-01-16T07:52:27;3.97;;;2.57;;
7215;SDS011;3649;48.798;9.798;2023-01-16T07:54:54;3.27;;;2.10;;
7215;SDS011;3649;48.798;9.798;2023-01-16T07:57:22;2.87;;;2.57;;
7215;SDS011;3649;48.798;9.798;2023-01-16T07:59:50;3.60;;;2.30;;
7215;SDS011;3649;48.798;9.798;2023-01-16T08:02:18;6.73;;;2.60;;
7215;SDS011;3649;48.798;9.798;2023-01-16T08:04:45;3.40;;;2.50;;
7215;SDS011;3649;48.798;9.798;2023-01-16T08:07:12;4.10;;;2.20;;
7215;SDS011;3649;48.798;9.798;2023-01-16T08:09:39;4.27;;;2.23;;
7215;SDS011;3649;48.798;9.798;2023-01-16T08:12:06;3.67;;;1.90;;
7215;SDS011;3649;48.798;9.798;2023-01-16T08:14:32;3.40;;;1.80;;
7215;SDS011;3649;48.798;9.798;2023-01-16T08:16:59;4.40;;;1.70;;
7215;SDS011;3649;48.798;9.798;2023-01-16T08:19:26;1.87;;;1.70;;
7215;SDS011;3649;48.798;9.798;2023-01-16T08:21:53;2.13;;;2.03;;
7215;SDS011;3649;48.798;9.798;2023-01-16T08:24:20;2.00;;;1.90;;
7215;SDS011;3649;48.798;9.798;2023-01-16T08:26:47;4.63;;;2.03;;
7215;SDS011;3649;48.798;9.798;2023-01-16T08:29:13;2.67;;;2.03;;
7215;SDS011;3649;48.798;9.798;2023-01-16T08:31:40;3.80;;;2.40;;
7215;SDS011;3649;48.798;9.798;2023-01-16T08:34:10;5.97;;;2.10;;
7215;SDS011;3649;48.798;9.798;2023-01-16T08:36:37;1.83;;;1.73;;
7215;SDS011;3649;48.798;9.798;2023-01-16T08:39:04;1.90;;;1.80;;
7215;SDS011;3649;48.798;9.798;2023-01-16T08:41:31;1.83;;;1.73;;
7215;SDS011;3649;48.798;9.798;2023-01-16T08:44:16;1.50;;;1.37;;
7215;SDS011;3649;48.798;9.798;2023-01-16T08:47:03;1.50;;;1.40;;
7215;SDS011;3649;48.798;9.798;2023-01-16T08:49:59;1.83;;;1.43;;
7215;SDS011;3649;48.798;9.798;2023-01-16T08:52:45;1.50;;;1.40;;
7215;SDS011;3649;48.798;9.798;2023-01-16T08:55:12;1.83;;;1.20;;
7215;SDS011;3649;48.798;9.798;2023-01-16T08:57:39;2.20;;;2.00;;
7215;SDS011;3649;48.798;9.798;2023-01-16T09:00:07;1.93;;;1.67;;
7215;SDS011;3649;48.798;9.798;2023-01-16T09:02:34;1.20;;;1.20;;
7215;SDS011;3649;48.798;9.798;2023-01-16T09:05:02;2.23;;;1.43;;
7215;SDS011;3649;48.798;9.798;2023-01-16T09:07:30;2.17;;;1.40;;
7215;SDS011;3649;48.798;9.798;2023-01-16T09:09:57;3.40;;;1.40;;
7215;SDS011;3649;48.798;9.798;2023-01-16T09:12:24;1.47;;;1.37;;
7215;SDS011;3649;48.798;9.798;2023-01-16T09:15:09;1.63;;;1.53;;
7215;SDS011;3649;48.798;9.798;2023-01-16T09:17:35;1.90;;;1.50;;
7215;SDS011;3649;48.798;9.798;2023-01-16T09:20:02;2.30;;;1.60;;
7215;SDS011;3649;48.798;9.798;2023-01-16T09:22:30;2.47;;;1.50;;
7215;SDS011;3649;48.798;9.798;2023-01-16T09:24:57;1.60;;;1.50;;
7215;SDS011;3649;48.798;9.798;2023-01-16T09:27:23;2.00;;;1.33;;
7215;SDS011;3649;48.798;9.798;2023-01-16T09:29:51;2.43;;;1.90;;
7215;SDS011;3649;48.798;9.798;2023-01-16T09:32:18;1.67;;;1.57;;
7215;SDS011;3649;48.798;9.798;2023-01-16T09:34:45;2.70;;;1.67;;
7215;SDS011;3649;48.798;9.798;2023-01-16T09:37:12;1.70;;;1.60;;
7215;SDS011;3649;48.798;9.798;2023-01-16T09:39:39;1.37;;;1.30;;
7215;SDS011;3649;48.798;9.798;2023-01-16T09:45:00;3.63;;;1.93;;
7215;SDS011;3649;48.798;9.798;2023-01-16T09:47:31;2.40;;;1.77;;
7215;SDS011;3649;48.798;9.798;2023-01-16T09:50:01;2.13;;;1.83;;
7215;SDS011;3649;48.798;9.798;2023-01-16T09:52:34;3.00;;;2.13;;
7215;SDS011;3649;48.798;9.798;2023-01-16T09:55:32;1.40;;;1.30;;
7215;SDS011;3649;48.798;9.798;2023-01-16T09:58:20;1.40;;;1.40;;
7215;SDS011;3649;48.798;9.798;2023-01-16T10:03:54;1.70;;;1.30;;
7215;SDS011;3649;48.798;9.798;2023-01-16T10:06:34;1.80;;;1.70;;
7215;SDS011;3649;48.798;9.798;2023-01-16T10:09:14;3.37;;;2.70;;
7215;SDS011;3649;48.798;9.798;2023-01-16T10:12:01;1.50;;;1.30;;
7215;SDS011;3649;48.798;9.798;2023-01-16T10:20:04;0.97;;;0.97;;
7215;SDS011;3649;48.798;9.798;2023-01-16T10:23:11;1.43;;;1.23;;
7215;SDS011;3649;48.798;9.798;2023-01-16T10:29:21;1.77;;;1.30;;
7215;SDS011;3649;48.798;9.798;2023-01-16T10:32:38;1.50;;;1.33;;
7215;SDS011;3649;48.798;9.798;2023-01-16T10:34:56;1.20;;;1.20;;
7215;SDS011;3649;48.798;9.798;2023-01-16T10:37:26;1.83;;;1.50;;
7215;SDS011;3649;48.798;9.798;2023-01-16T10:39:54;1.67;;;1.57;;
7215;SDS011;3649;48.798;9.798;2023-01-16T10:42:23;2.03;;;1.50;;
7215;SDS011;3649;48.798;9.798;2023-01-16T10:45:24;1.80;;;1.70;;
7215;SDS011;3649;48.798;9.798;2023-01-16T10:48:14;1.70;;;1.60;;
7215;SDS011;3649;48.798;9.798;2023-01-16T10:51:02;3.33;;;1.33;;
7215;SDS011;3649;48.798;9.798;2023-01-16T10:53:30;1.43;;;1.20;;
7215;SDS011;3649;48.798;9.798;2023-01-16T10:55:57;1.47;;;1.37;;
7215;SDS011;3649;48.798;9.798;2023-01-16T10:58:28;1.57;;;1.47;;
7215;SDS011;3649;48.798;9.798;2023-01-16T11:00:58;1.50;;;1.40;;
7215;SDS011;3649;48.798;9.798;2023-01-16T11:08:38;1.10;;;1.00;;
7215;SDS011;3649;48.798;9.798;2023-01-16T11:11:08;2.03;;;1.20;;
7215;SDS011;3649;48.798;9.798;2023-01-16T11:13:58;1.73;;;1.13;;
7215;SDS011;3649;48.798;9.798;2023-01-16T11:16:45;1.40;;;1.33;;
7215;SDS011;3649;48.798;9.798;2023-01-16T11:19:37;1.27;;;1.27;;
7215;SDS011;3649;48.798;9.798;2023-01-16T11:22:24;1.10;;;1.10;;
7215;SDS011;3649;48.798;9.798;2023-01-16T11:24:55;1.40;;;1.40;;
7215;SDS011;3649;48.798;9.798;2023-01-16T11:27:28;1.60;;;1.50;;
7215;SDS011;3649;48.798;9.798;2023-01-16T11:29:57;1.60;;;1.50;;
7215;SDS011;3649;48.798;9.798;2023-01-16T11:32:28;3.00;;;2.80;;
7215;SDS011;3649;48.798;9.798;2023-01-16T11:35:01;2.50;;;2.30;;
7215;SDS011;3649;48.798;9.798;2023-01-16T11:37:28;1.87;;;1.77;;
7215;SDS011;3649;48.798;9.798;2023-01-16T11:39:55;1.77;;;1.67;;
7215;SDS011;3649;48.798;9.798;2023-01-16T11:42:28;2.00;;;1.90;;
7215;SDS011;3649;48.798;9.798;2023-01-16T11:45:16;2.30;;;1.63;;
7215;SDS011;3649;48.798;9.798;2023-01-16T11:48:05;1.47;;;1.47;;
7215;SDS011;3649;48.798;9.798;2023-01-16T11:50:53;2.43;;;1.90;;
7215;SDS011;3649;48.798;9.798;2023-01-16T11:53:22;2.27;;;1.80;;
7215;SDS011;3649;48.798;9.798;2023-01-16T11:56:11;1.67;;;1.57;;
7215;SDS011;3649;48.798;9.798;2023-01-16T12:04:34;1.30;;;1.30;;
7215;SDS011;3649;48.798;9.798;2023-01-16T12:07:12;1.97;;;1.60;;
7215;SDS011;3649;48.798;9.798;2023-01-16T12:13:03;1.30;;;1.30;;
7215;SDS011;3649;48.798;9.798;2023-01-16T12:18:41;1.53;;;1.20;;
7215;SDS011;3649;48.798;9.798;2023-01-16T12:21:28;1.90;;;1.80;;
7215;SDS011;3649;48.798;9.798;2023-01-16T12:29:24;1.97;;;1.80;;
7215;SDS011;3649;48.798;9.798;2023-01-16T12:32:01;1.50;;;1.50;;
7215;SDS011;3649;48.798;9.798;2023-01-16T12:34:36;1.40;;;1.30;;
7215;SDS011;3649;48.798;9.798;2023-01-16T12:48:26;2.30;;;1.93;;
7215;SDS011;3649;48.798;9.798;2023-01-16T13:02:01;1.30;;;1.30;;
7215;SDS011;3649;48.798;9.798;2023-01-16T13:04:42;1.10;;;1.10;;
7215;SDS011;3649;48.798;9.798;2023-01-16T13:07:15;6.20;;;1.10;;
7215;SDS011;3649;48.798;9.798;2023-01-16T13:12:50;1.20;;;1.10;;
7215;SDS011;3649;48.798;9.798;2023-01-16T13:15:37;1.30;;;1.30;;
7215;SDS011;3649;48.798;9.798;2023-01-16T13:20:57;1.10;;;1.10;;
7215;SDS011;3649;48.798;9.798;2023-01-16T13:23:31;1.10;;;1.10;;
7215;SDS011;3649;48.798;9.798;2023-01-16T13:26:03;1.90;;;1.00;;
7215;SDS011;3649;48.798;9.798;2023-01-16T13:28:55;1.30;;;1.20;;
7215;SDS011;3649;48.798;9.798;2023-01-16T13:31:46;1.27;;;1.17;;
7215;SDS011;3649;48.798;9.798;2023-01-16T13:42:25;1.20;;;1.10;;
7215;SDS011;3649;48.798;9.798;2023-01-16T13:44:55;1.00;;;1.00;;
7215;SDS011;3649;48.798;9.798;2023-01-16T13:47:44;0.90;;;0.90;;
7215;SDS011;3649;48.798;9.798;2023-01-16T13:50:24;3.87;;;1.20;;
7215;SDS011;3649;48.798;9.798;2023-01-16T13:53:00;1.20;;;1.20;;
7215;SDS011;3649;48.798;9.798;2023-01-16T13:55:30;1.30;;;1.27;;
7215;SDS011;3649;48.798;9.798;2023-01-16T13:58:19;1.00;;;1.00;;
7215;SDS011;3649;48.798;9.798;2023-01-16T14:00:56;0.90;;;0.90;;
7215;SDS011;3649;48.798;9.798;2023-01-16T14:03:28;1.00;;;1.00;;
7215;SDS011;3649;48.798;9.798;2023-01-16T14:06:19;1.10;;;0.90;;
7215;SDS011;3649;48.798;9.798;2023-01-16T14:08:48;0.93;;;0.93;;
7215;SDS011;3649;48.798;9.798;2023-01-16T14:17:15;0.90;;;0.90;;
7215;SDS011;3649;48.798;9.798;2023-01-16T14:22:21;0.90;;;0.90;;
7215;SDS011;3649;48.798;9.798;2023-01-16T14:24:54;0.90;;;0.90;;
7215;SDS011;3649;48.798;9.798;2023-01-16T14:27:24;0.90;;;0.90;;
7215;SDS011;3649;48.798;9.798;2023-01-16T14:30:03;1.00;;;1.00;;
7215;SDS011;3649;48.798;9.798;2023-01-16T14:32:49;1.53;;;1.50;;
7215;SDS011;3649;48.798;9.798;2023-01-16T14:35:21;1.53;;;1.43;;
7215;SDS011;3649;48.798;9.798;2023-01-16T14:40:27;1.43;;;1.20;;
7215;SDS011;3649;48.798;9.798;2023-01-16T14:43:26;1.07;;;1.07;;
7215;SDS011;3649;48.798;9.798;2023-01-16T14:48:59;1.03;;;1.03;;
7215;SDS011;3649;48.798;9.798;2023-01-16T14:52:08;1.00;;;1.00;;
7215;SDS011;3649;48.798;9.798;2023-01-16T14:54:54;1.00;;;1.00;;
7215;SDS011;3649;48.798;9.798;2023-01-16T14:57:40;1.10;;;1.10;;
7215;SDS011;3649;48.798;9.798;2023-01-16T15:00:10;1.73;;;1.10;;
7215;SDS011;3649;48.798;9.798;2023-01-16T15:02:49;0.90;;;0.90;;
7215;SDS011;3649;48.798;9.798;2023-01-16T15:05:31;1.23;;;1.23;;
7215;SDS011;3649;48.798;9.798;2023-01-16T15:08:23;1.33;;;1.23;;
7215;SDS011;3649;48.798;9.798;2023-01-16T15:11:37;1.60;;;1.23;;
7215;SDS011;3649;48.798;9.798;2023-01-16T15:14:05;1.57;;;1.27;;
7215;SDS011;3649;48.798;9.798;2023-01-16T15:16:53;1.70;;;1.33;;
7215;SDS011;3649;48.798;9.798;2023-01-16T15:19:57;1.20;;;1.20;;
7215;SDS011;3649;48.798;9.798;2023-01-16T15:28:35;1.30;;;1.30;;
7215;SDS011;3649;48.798;9.798;2023-01-16T15:31:13;1.17;;;1.17;;
7215;SDS011;3649;48.798;9.798;2023-01-16T15:33:42;1.73;;;1.63;;
7215;SDS011;3649;48.798;9.798;2023-01-16T15:38:47;1.67;;;1.40;;
7215;SDS011;3649;48.798;9.798;2023-01-16T15:41:20;1.30;;;1.23;;
7215;SDS011;3649;48.798;9.798;2023-01-16T15:44:14;1.60;;;1.50;;
7215;SDS011;3649;48.798;9.798;2023-01-16T15:49:52;1.20;;;1.20;;
7215;SDS011;3649;48.798;9.798;2023-01-16T15:52:41;1.30;;;1.20;;
7215;SDS011;3649;48.798;9.798;2023-01-16T15:55:10;1.20;;;1.20;;
7215;SDS011;3649;48.798;9.798;2023-01-16T15:57:46;1.00;;;1.00;;
7215;SDS011;3649;48.798;9.798;2023-01-16T16:00:24;1.27;;;1.27;;
7215;SDS011;3649;48.798;9.798;2023-01-16T16:02:57;1.10;;;1.10;;
7215;SDS011;3649;48.798;9.798;2023-01-16T16:05:27;1.50;;;1.23;;
7215;SDS011;3649;48.798;9.798;2023-01-16T16:07:55;0.90;;;0.90;;
7215;SDS011;3649;48.798;9.798;2023-01-16T16:10:23;1.83;;;1.50;;
7215;SDS011;3649;48.798;9.798;2023-01-16T16:13:11;1.00;;;1.00;;
7215;SDS011;3649;48.798;9.798;2023-01-16T16:15:55;1.27;;;1.27;;
7215;SDS011;3649;48.798;9.798;2023-01-16T16:18:50;1.07;;;1.07;;
7215;SDS011;3649;48.798;9.798;2023-01-16T16:21:28;1.10;;;1.10;;
7215;SDS011;3649;48.798;9.798;2023-01-16T16:23:57;1.30;;;1.20;;
7215;SDS011;3649;48.798;9.798;2023-01-16T16:26:32;1.10;;;1.10;;
7215;SDS011;3649;48.798;9.798;2023-01-16T16:29:06;1.00;;;1.00;;
7215;SDS011;3649;48.798;9.798;2023-01-16T16:31:42;1.03;;;1.03;;
7215;SDS011;3649;48.798;9.798;2023-01-16T16:34:15;1.10;;;1.10;;
7215;SDS011;3649;48.798;9.798;2023-01-16T16:36:46;1.07;;;1.07;;
7215;SDS011;3649;48.798;9.798;2023-01-16T16:39:29;1.20;;;1.20;;
7215;SDS011;3649;48.798;9.798;2023-01-16T16:47:37;1.70;;;1.23;;
7215;SDS011;3649;48.798;9.798;2023-01-16T16:52:47;1.03;;;1.03;;
7215;SDS011;3649;48.798;9.798;2023-01-16T16:55:25;1.20;;;1.20;;
7215;SDS011;3649;48.798;9.798;2023-01-16T16:57:56;1.10;;;1.10;;
7215;SDS011;3649;48.798;9.798;2023-01-16T17:00:24;1.57;;;1.50;;
7215;SDS011;3649;48.798;9.798;2023-01-16T17:02:53;1.47;;;1.40;;
7215;SDS011;3649;48.798;9.798;2023-01-16T17:05:27;1.20;;;1.20;;
7215;SDS011;3649;48.798;9.798;2023-01-16T17:07:55;0.97;;;0.97;;
7215;SDS011;3649;48.798;9.798;2023-01-16T17:10:23;1.07;;;1.07;;
7215;SDS011;3649;48.798;9.798;2023-01-16T17:12:50;1.13;;;1.13;;
7215;SDS011;3649;48.798;9.798;2023-01-16T17:15:17;1.00;;;1.00;;
7215;SDS011;3649;48.798;9.798;2023-01-16T17:17:44;1.27;;;1.27;;
7215;SDS011;3649;48.798;9.798;2023-01-16T17:20:15;1.20;;;1.20;;
7215;SDS011;3649;48.798;9.798;2023-01-16T17:22:44;1.30;;;1.30;;
7215;SDS011;3649;48.798;9.798;2023-01-16T17:25:12;1.80;;;1.70;;
7215;SDS011;3649;48.798;9.798;2023-01-16T17:27:56;1.67;;;1.57;;
7215;SDS011;3649;48.798;9.798;2023-01-16T17:30:23;1.63;;;1.53;;
7215;SDS011;3649;48.798;9.798;2023-01-16T17:32:58;2.00;;;1.90;;
7215;SDS011;3649;48.798;9.798;2023-01-16T17:35:39;1.30;;;1.20;;
7215;SDS011;3649;48.798;9.798;2023-01-16T17:38:09;1.50;;;1.40;;
7215;SDS011;3649;48.798;9.798;2023-01-16T17:40:38;1.40;;;1.40;;
7215;SDS011;3649;48.798;9.798;2023-01-16T17:43:05;1.60;;;1.50;;
7215;SDS011;3649;48.798;9.798;2023-01-16T17:45:54;1.60;;;1.50;;
7215;SDS011;3649;48.798;9.798;2023-01-16T17:48:23;2.63;;;1.60;;
7215;SDS011;3649;48.798;9.798;2023-01-16T17:50:52;1.53;;;1.53;;
7215;SDS011;3649;48.798;9.798;2023-01-16T17:53:20;1.60;;;1.50;;
7215;SDS011;3649;48.798;9.798;2023-01-16T17:55:49;1.40;;;1.40;;
7215;SDS011;3649;48.798;9.798;2023-01-16T17:58:30;1.20;;;1.20;;
7215;SDS011;3649;48.798;9.798;2023-01-16T18:01:12;1.50;;;1.50;;
7215;SDS011;3649;48.798;9.798;2023-01-16T18:03:39;1.23;;;1.23;;
7215;SDS011;3649;48.798;9.798;2023-01-16T18:06:09;1.37;;;1.27;;
7215;SDS011;3649;48.798;9.798;2023-01-16T18:08:36;1.63;;;1.53;;
7215;SDS011;3649;48.798;9.798;2023-01-16T18:11:03;1.50;;;1.50;;
7215;SDS011;3649;48.798;9.798;2023-01-16T18:13:50;1.60;;;1.50;;
7215;SDS011;3649;48.798;9.798;2023-01-16T18:16:36;1.40;;;1.40;;
7215;SDS011;3649;48.798;9.798;2023-01-16T18:19:22;1.20;;;1.20;;